createdAt,value
2022-12-09T00:00:01.887Z,98092.94
2022-12-09T00:02:51.357Z,98096.19
2022-12-09T00:05:41.049Z,98094.59
2022-12-09T00:08:27.728Z,98102.19
2022-12-09T00:11:14.707Z,98104.66
2022-12-09T00:14:01.517Z,98080.03
2022-12-09T00:16:48.373Z,98096.31
2022-12-09T00:19:35.290Z,98062.00
2022-12-09T00:22:21.632Z,98098.53
2022-12-09T00:25:08.700Z,98101.22
2022-12-09T00:27:55.118Z,98093.53
2022-12-09T00:30:41.679Z,98095.59
2022-12-09T00:33:30.970Z,98087.72
2022-12-09T00:36:20.104Z,98094.41
2022-12-09T00:39:06.631Z,98082.00
2022-12-09T00:41:53.027Z,98075.28
2022-12-09T00:44:39.419Z,98097.34
2022-12-09T00:47:26.050Z,98094.25
2022-12-09T00:50:12.325Z,98051.53
2022-12-09T00:52:58.440Z,98093.13
2022-12-09T00:55:46.077Z,98058.91
2022-12-09T00:58:33.184Z,98102.22
2022-12-09T01:01:20.527Z,98095.28
2022-12-09T01:04:09.899Z,98086.56
2022-12-09T01:06:56.244Z,98052.88
2022-12-09T01:09:42.772Z,98059.50
2022-12-09T01:12:28.971Z,98099.44
2022-12-09T01:15:15.480Z,98060.38
2022-12-09T01:18:02.239Z,98090.91
2022-12-09T01:20:56.668Z,98111.56
2022-12-09T01:23:43.195Z,98110.19
2022-12-09T01:26:30.010Z,98105.16
2022-12-09T01:29:16.445Z,98096.75
2022-12-09T01:32:02.805Z,98073.19
2022-12-09T01:34:49.471Z,98104.88
2022-12-09T01:37:36.786Z,98075.03
2022-12-09T01:40:23.720Z,98091.59
2022-12-09T01:43:20.273Z,98092.94
2022-12-09T01:46:07.138Z,98079.75
2022-12-09T01:48:53.764Z,98094.31
2022-12-09T01:51:42.998Z,98084.97
2022-12-09T01:54:34.128Z,98056.56
2022-12-09T01:57:22.810Z,98083.69
2022-12-09T02:00:10.346Z,98036.41
2022-12-09T02:03:02.746Z,98083.34
2022-12-09T02:05:49.247Z,98024.38
2022-12-09T02:08:36.021Z,98065.59
2022-12-09T02:12:04.100Z,98048.13
2022-12-09T02:14:56.745Z,98026.94
2022-12-09T02:17:51.096Z,98050.53
2022-12-09T02:20:56.682Z,98017.44
2022-12-09T02:23:53.643Z,98041.91
2022-12-09T02:27:00.617Z,98035.38
2022-12-09T02:30:12.977Z,98038.34
2022-12-09T02:33:33.067Z,98026.50
2022-12-09T02:36:23.401Z,98005.78
2022-12-09T02:39:10.543Z,98039.72
2022-12-09T02:41:59.681Z,98027.44
2022-12-09T02:44:49.626Z,98029.50
2022-12-09T02:47:44.036Z,98027.22
2022-12-09T02:50:36.152Z,98025.13
2022-12-09T02:53:25.845Z,98022.91
2022-12-09T02:56:15.648Z,98007.06
2022-12-09T02:59:02.008Z,98013.06
2022-12-09T03:02:01.887Z,98006.22
2022-12-09T03:05:05.033Z,97961.81
2022-12-09T03:08:39.828Z,97996.97
2022-12-09T03:11:27.357Z,97974.31
2022-12-09T03:14:25.383Z,97997.97
2022-12-09T03:17:33.610Z,97997.97
2022-12-09T03:20:28.913Z,97995.19
2022-12-09T03:23:17.943Z,97980.59
2022-12-09T03:26:06.450Z,97993.75
2022-12-09T03:28:55.256Z,97948.69
2022-12-09T03:31:42.975Z,97986.00
2022-12-09T03:34:39.629Z,97979.41
2022-12-09T03:37:26.770Z,97950.31
2022-12-09T03:40:17.809Z,97947.03
2022-12-09T03:43:12.312Z,97983.88
2022-12-09T03:45:59.881Z,97934.38
2022-12-09T03:48:47.793Z,97950.59
2022-12-09T03:51:46.783Z,97954.81
2022-12-09T03:54:45.373Z,97913.72
2022-12-09T03:57:35.571Z,97986.31
2022-12-09T04:00:22.495Z,97979.06
2022-12-09T04:03:09.204Z,97982.53
2022-12-09T04:05:57.717Z,97949.69
2022-12-09T04:08:44.335Z,97955.28
2022-12-09T04:11:32.626Z,97959.91
2022-12-09T04:14:19.314Z,97967.97
2022-12-09T04:17:05.660Z,97945.19
2022-12-09T04:19:52.366Z,97936.94
2022-12-09T04:22:38.864Z,97973.56
2022-12-09T04:25:25.563Z,97973.44
2022-12-09T04:28:12.027Z,97922.34
2022-12-09T04:30:58.822Z,97925.94
2022-12-09T04:33:45.863Z,97925.16
2022-12-09T04:36:32.454Z,97902.91
2022-12-09T04:39:19.570Z,97946.44
2022-12-09T04:42:05.739Z,97942.66
2022-12-09T04:44:52.088Z,97914.66
2022-12-09T04:47:38.602Z,97927.13
2022-12-09T04:50:25.351Z,97931.16
2022-12-09T04:53:12.033Z,97920.41
2022-12-09T04:56:03.732Z,97892.22
2022-12-09T04:58:51.277Z,97915.09
2022-12-09T05:01:37.849Z,97890.44
2022-12-09T05:04:24.230Z,97916.81
2022-12-09T05:07:11.767Z,97906.22
2022-12-09T05:09:58.856Z,97902.28
2022-12-09T05:12:45.880Z,97896.00
2022-12-09T05:15:32.337Z,97904.44
2022-12-09T05:18:19.062Z,97863.47
2022-12-09T05:21:07.563Z,97869.25
2022-12-09T05:23:54.304Z,97896.81
2022-12-09T05:26:41.152Z,97892.50
2022-12-09T05:29:28.257Z,97892.13
2022-12-09T05:32:15.238Z,97895.41
2022-12-09T05:35:01.999Z,97837.81
2022-12-09T05:37:48.603Z,97889.75
2022-12-09T05:40:35.339Z,97869.50
2022-12-09T05:43:21.725Z,97898.00
2022-12-09T05:46:09.438Z,97837.69
2022-12-09T05:48:56.166Z,97879.03
2022-12-09T05:51:43.221Z,97881.13
2022-12-09T05:54:29.572Z,97878.38
2022-12-09T05:57:16.414Z,97835.44
2022-12-09T06:00:06.716Z,97869.59
2022-12-09T06:02:58.512Z,97850.91
2022-12-09T06:05:45.113Z,97862.03
2022-12-09T06:08:31.346Z,97840.16
2022-12-09T06:11:21.524Z,97869.88
2022-12-09T06:14:10.170Z,97863.91
2022-12-09T06:16:56.724Z,97862.03
2022-12-09T06:19:43.901Z,97830.91
2022-12-09T06:22:30.612Z,97845.78
2022-12-09T06:25:17.320Z,97860.88
2022-12-09T06:28:04.223Z,97861.44
2022-12-09T06:30:50.661Z,97862.94
2022-12-09T06:33:54.304Z,97826.63
2022-12-09T06:36:43.576Z,97833.31
2022-12-09T06:39:30.827Z,97817.88
2022-12-09T06:42:17.859Z,97834.94
2022-12-09T06:45:05.005Z,97850.91
2022-12-09T06:47:51.618Z,97842.16
2022-12-09T06:50:39.189Z,97863.81
2022-12-09T06:53:25.919Z,97840.19
2022-12-09T06:56:13.508Z,97817.03
2022-12-09T06:59:00.580Z,97846.16
2022-12-09T07:01:47.178Z,97837.69
2022-12-09T07:04:34.202Z,97854.41
2022-12-09T07:07:21.943Z,97845.78
2022-12-09T07:10:09.682Z,97861.91
2022-12-09T07:12:56.286Z,97857.31
2022-12-09T07:15:42.732Z,97869.06
2022-12-09T07:18:29.455Z,97864.47
2022-12-09T07:21:19.477Z,97858.97
2022-12-09T07:24:06.540Z,97797.50
2022-12-09T07:26:53.297Z,97863.03
2022-12-09T07:29:40.257Z,97846.28
2022-12-09T07:32:26.744Z,97832.13
2022-12-09T07:35:13.830Z,97840.41
2022-12-09T07:38:01.055Z,97857.75
2022-12-09T07:40:48.007Z,97819.16
2022-12-09T07:43:35.414Z,97818.44
2022-12-09T07:46:23.683Z,97826.34
2022-12-09T07:49:11.919Z,97846.53
2022-12-09T07:51:58.792Z,97845.91
2022-12-09T07:54:45.376Z,97849.56
2022-12-09T07:57:33.545Z,97827.00
2022-12-09T08:00:20.305Z,97848.53
2022-12-09T08:03:06.581Z,97850.41
2022-12-09T08:05:53.782Z,97854.19
2022-12-09T08:08:40.857Z,97854.53
2022-12-09T08:11:30.213Z,97850.03
2022-12-09T08:14:16.883Z,97825.72
2022-12-09T08:17:03.566Z,97847.47
2022-12-09T08:19:50.857Z,97820.09
2022-12-09T08:22:37.699Z,97813.13
2022-12-09T08:25:24.444Z,97827.31
2022-12-09T08:28:11.009Z,97816.38
2022-12-09T08:30:59.043Z,97830.34
2022-12-09T08:33:46.553Z,97827.94
2022-12-09T08:36:33.783Z,97767.22
2022-12-09T08:39:20.798Z,97809.75
2022-12-09T08:42:07.424Z,97811.75
2022-12-09T08:44:58.605Z,97813.19
2022-12-09T08:47:48.426Z,97819.88
2022-12-09T08:50:36.182Z,97791.31
2022-12-09T08:53:22.827Z,97773.56
2022-12-09T08:56:11.719Z,97808.78
2022-12-09T08:58:58.836Z,97783.88
2022-12-09T09:01:45.693Z,97803.78
2022-12-09T09:04:33.820Z,97787.53
2022-12-09T09:07:21.085Z,97777.22
2022-12-09T09:10:08.931Z,97773.09
2022-12-09T09:12:56.195Z,97802.56
2022-12-09T09:15:43.008Z,97797.38
2022-12-09T09:18:30.178Z,97769.25
2022-12-09T09:21:20.271Z,97704.59
2022-12-09T09:24:12.099Z,97793.72
2022-12-09T09:26:58.899Z,97790.34
2022-12-09T09:29:45.679Z,97786.88
2022-12-09T09:32:33.010Z,97747.59
2022-12-09T09:35:19.729Z,97794.34
2022-12-09T09:38:06.895Z,97776.78
2022-12-09T09:40:54.038Z,97788.03
2022-12-09T09:43:40.340Z,97792.13
2022-12-09T09:46:37.058Z,97763.75
2022-12-09T09:49:31.988Z,97791.25
2022-12-09T09:52:22.562Z,97761.38
2022-12-09T09:55:18.387Z,97749.31
2022-12-09T09:58:25.482Z,97774.00
2022-12-09T10:01:18.846Z,97777.56
2022-12-09T10:04:26.465Z,97769.19
2022-12-09T10:07:31.396Z,97738.03
2022-12-09T10:10:55.930Z,97758.06
2022-12-09T10:14:34.151Z,97754.91
2022-12-09T10:17:34.218Z,97747.47
2022-12-09T10:20:24.433Z,97712.69
2022-12-09T10:23:16.386Z,97742.09
2022-12-09T10:26:06.880Z,97712.19
2022-12-09T10:29:10.830Z,97742.50
2022-12-09T10:31:57.654Z,97746.69
2022-12-09T10:34:45.984Z,97758.63
2022-12-09T10:37:36.095Z,97751.00
2022-12-09T10:40:47.438Z,97747.94
2022-12-09T10:43:41.062Z,97747.16
2022-12-09T10:46:27.573Z,97739.84
2022-12-09T10:49:22.076Z,97728.53
2022-12-09T10:52:09.321Z,97729.47
2022-12-09T10:54:55.992Z,97715.78
2022-12-09T10:57:42.672Z,97700.41
2022-12-09T11:00:34.620Z,97712.25
2022-12-09T11:03:54.825Z,97717.66
2022-12-09T11:06:41.713Z,97681.53
2022-12-09T11:09:29.893Z,97695.09
2022-12-09T11:12:18.577Z,97717.28
2022-12-09T11:15:29.767Z,97715.50
2022-12-09T11:18:42.117Z,97694.19
2022-12-09T11:21:36.886Z,97704.34
2022-12-09T11:24:26.139Z,97699.38
2022-12-09T11:27:31.934Z,97676.06
2022-12-09T11:30:23.177Z,97698.41
2022-12-09T11:33:16.527Z,97708.59
2022-12-09T11:36:09.288Z,97661.50
2022-12-09T11:39:16.094Z,97695.75
2022-12-09T11:42:17.071Z,97631.75
2022-12-09T11:45:17.108Z,97694.97
2022-12-09T11:48:29.746Z,97652.06
2022-12-09T11:51:41.365Z,97683.22
2022-12-09T11:54:37.966Z,97686.88
2022-12-09T11:57:34.158Z,97664.50
2022-12-09T12:00:26.638Z,97656.88
2022-12-09T12:03:19.651Z,97659.69
2022-12-09T12:06:14.290Z,97645.25
2022-12-09T12:09:24.944Z,97602.47
2022-12-09T12:12:24.971Z,97670.91
2022-12-09T12:15:21.858Z,97676.81
2022-12-09T12:18:15.598Z,97666.72
2022-12-09T12:21:28.335Z,97665.75
2022-12-09T12:24:39.839Z,97661.63
2022-12-09T12:27:47.395Z,97653.03
2022-12-09T12:31:12.744Z,97658.91
2022-12-09T12:34:27.182Z,97668.44
2022-12-09T12:37:32.169Z,97672.72
2022-12-09T12:40:30.773Z,97670.16
2022-12-09T12:43:48.329Z,97666.75
2022-12-09T12:46:46.843Z,97664.91
2022-12-09T12:50:02.322Z,97655.56
2022-12-09T12:53:06.425Z,97649.66
2022-12-09T12:56:07.156Z,97659.16
2022-12-09T12:59:17.018Z,97664.25
2022-12-09T13:02:22.250Z,97671.13
2022-12-09T13:05:20.484Z,97668.50
2022-12-09T13:08:18.022Z,97642.78
2022-12-09T13:11:24.933Z,97625.56
2022-12-09T13:14:19.047Z,97670.06
2022-12-09T13:17:08.404Z,97670.78
2022-12-09T13:19:58.496Z,97662.22
2022-12-09T13:22:54.682Z,97639.97
2022-12-09T13:25:56.808Z,97668.97
2022-12-09T13:29:07.048Z,97670.72
2022-12-09T13:31:59.462Z,97668.22
2022-12-09T13:34:54.224Z,97634.13
2022-12-09T13:37:43.403Z,97666.47
2022-12-09T13:40:38.789Z,97668.97
2022-12-09T13:43:31.515Z,97644.94
2022-12-09T13:46:23.518Z,97674.91
2022-12-09T13:49:23.759Z,97664.69
2022-12-09T13:52:10.137Z,97659.66
2022-12-09T13:54:57.729Z,97637.41
2022-12-09T13:58:24.668Z,97645.06
2022-12-09T14:01:10.948Z,97668.31
2022-12-09T14:04:21.309Z,97668.19
2022-12-09T14:07:14.169Z,97669.09
2022-12-09T14:10:01.114Z,97578.47
2022-12-09T14:12:50.371Z,97659.59
2022-12-09T14:15:38.091Z,97668.13
2022-12-09T14:18:33.162Z,97641.63
2022-12-09T14:21:19.412Z,97679.25
2022-12-09T14:24:26.426Z,97674.94
2022-12-09T14:27:14.709Z,97637.25
2022-12-09T14:30:43.919Z,97685.09
2022-12-09T14:33:44.630Z,97679.88
2022-12-09T14:36:33.614Z,97676.44
2022-12-09T14:39:27.723Z,97669.53
2022-12-09T14:42:35.132Z,97670.41
2022-12-09T14:45:47.599Z,97690.91
2022-12-09T14:48:40.761Z,97701.97
2022-12-09T14:51:33.654Z,97673.75
2022-12-09T14:54:41.606Z,97694.16
2022-12-09T14:57:37.182Z,97710.28
2022-12-09T15:00:29.083Z,97713.78
2022-12-09T15:03:45.479Z,97713.09
2022-12-09T15:06:19.464Z,97703.47
2022-12-09T15:09:05.815Z,97690.63
2022-12-09T15:11:52.256Z,97721.41
2022-12-09T15:14:40.509Z,97729.88
2022-12-09T15:17:43.396Z,97677.72
2022-12-09T15:20:32.678Z,97720.28
2022-12-09T15:23:23.396Z,97712.47
2022-12-09T15:26:30.336Z,97701.34
2022-12-09T15:29:21.575Z,97732.06
2022-12-09T15:32:20.124Z,97729.56
2022-12-09T15:35:18.264Z,97694.53
2022-12-09T15:38:08.280Z,97731.22
2022-12-09T15:41:16.473Z,97701.38
2022-12-09T15:44:08.121Z,97731.16
2022-12-09T15:46:56.416Z,97689.28
2022-12-09T15:49:50.424Z,97733.00
2022-12-09T15:52:50.104Z,97708.97
2022-12-09T15:55:52.848Z,97716.72
2022-12-09T15:58:45.827Z,97696.88
2022-12-09T16:01:34.112Z,97702.97
2022-12-09T16:04:34.140Z,97733.66
2022-12-09T16:07:21.848Z,97742.16
2022-12-09T16:10:17.714Z,97734.41
2022-12-09T16:13:16.149Z,97724.16
2022-12-09T16:16:23.920Z,97733.56
2022-12-09T16:19:38.102Z,97747.34
2022-12-09T16:22:29.600Z,97742.19
2022-12-09T16:25:21.881Z,97719.91
2022-12-09T16:28:21.062Z,97729.47
2022-12-09T16:31:18.368Z,97742.25
2022-12-09T16:34:04.768Z,97742.19
2022-12-09T16:36:56.037Z,97735.31
2022-12-09T16:39:42.964Z,97738.75
2022-12-09T16:42:35.199Z,97722.50
2022-12-09T16:45:32.068Z,97753.34
2022-12-09T16:48:19.585Z,97744.84
2022-12-09T16:51:17.610Z,97738.97
2022-12-09T16:54:17.950Z,97754.25
2022-12-09T16:57:06.550Z,97708.72
2022-12-09T16:59:53.463Z,97721.59
2022-12-09T17:02:43.858Z,97731.81
2022-12-09T17:05:30.550Z,97731.53
2022-12-09T17:08:16.928Z,97748.63
2022-12-09T17:11:02.964Z,97761.44
2022-12-09T17:13:50.329Z,97745.00
2022-12-09T17:16:37.622Z,97770.59
2022-12-09T17:19:24.658Z,97728.31
2022-12-09T17:22:11.210Z,97740.94
2022-12-09T17:24:57.728Z,97748.69
2022-12-09T17:27:44.010Z,97739.97
2022-12-09T17:30:30.544Z,97772.56
2022-12-09T17:33:17.248Z,97743.47
2022-12-09T17:36:04.009Z,97750.22
2022-12-09T17:38:50.336Z,97760.56
2022-12-09T17:41:36.895Z,97722.78
2022-12-09T17:44:23.130Z,97756.03
2022-12-09T17:47:09.322Z,97765.44
2022-12-09T17:49:56.444Z,97764.88
2022-12-09T17:52:43.048Z,97767.59
2022-12-09T17:55:29.924Z,97745.50
2022-12-09T17:58:16.708Z,97772.09
2022-12-09T18:01:03.335Z,97742.19
2022-12-09T18:04:00.433Z,97740.69
2022-12-09T18:06:48.979Z,97754.31
2022-12-09T18:09:35.565Z,97757.78
2022-12-09T18:12:22.209Z,97786.88
2022-12-09T18:15:08.916Z,97780.13
2022-12-09T18:17:55.430Z,97773.16
2022-12-09T18:20:41.794Z,97786.69
2022-12-09T18:23:27.951Z,97765.28
2022-12-09T18:26:17.074Z,97796.94
2022-12-09T18:29:03.811Z,97764.28
2022-12-09T18:31:55.626Z,97791.59
2022-12-09T18:34:41.837Z,97802.69
2022-12-09T18:37:28.757Z,97783.78
2022-12-09T18:40:21.077Z,97791.31
2022-12-09T18:43:07.528Z,97783.44
2022-12-09T18:45:54.307Z,97813.41
2022-12-09T18:48:40.950Z,97815.44
2022-12-09T18:51:28.168Z,97813.03
2022-12-09T18:54:24.592Z,97790.66
2022-12-09T18:57:10.860Z,97799.91
2022-12-09T18:59:57.112Z,97785.25
2022-12-09T19:02:43.322Z,97784.28
2022-12-09T19:05:29.920Z,97807.50
2022-12-09T19:08:16.143Z,97804.38
2022-12-09T19:11:02.432Z,97779.56
2022-12-09T19:13:49.536Z,97810.13
2022-12-09T19:16:35.957Z,97814.34
2022-12-09T19:19:25.538Z,97805.16
2022-12-09T19:22:12.065Z,97810.34
2022-12-09T19:24:58.737Z,97797.47
2022-12-09T19:27:46.901Z,97812.13
2022-12-09T19:30:33.479Z,97787.28
2022-12-09T19:33:19.797Z,97807.94
2022-12-09T19:36:06.500Z,97793.47
2022-12-09T19:38:52.986Z,97784.84
2022-12-09T19:41:40.353Z,97807.13
2022-12-09T19:44:52.353Z,97792.47
2022-12-09T19:47:33.139Z,97822.38
2022-12-09T19:50:20.016Z,97802.69
2022-12-09T19:53:06.273Z,97828.34
2022-12-09T19:55:52.592Z,97834.28
2022-12-09T19:58:41.002Z,97838.25
2022-12-09T20:01:33.605Z,97839.72
2022-12-09T20:07:29.814Z,97845.75
2022-12-09T20:10:16.090Z,97831.00
2022-12-09T20:13:02.673Z,97844.72
2022-12-09T20:15:48.919Z,97820.56
2022-12-09T20:18:36.620Z,97849.19
2022-12-09T20:21:23.683Z,97844.31
2022-12-09T20:24:09.983Z,97816.59
2022-12-09T20:26:56.365Z,97842.22
2022-12-09T20:29:42.707Z,97830.16
2022-12-09T20:32:30.016Z,97857.66
2022-12-09T20:35:16.513Z,97854.16
2022-12-09T20:38:04.449Z,97840.41
2022-12-09T20:40:50.817Z,97814.78
2022-12-09T20:43:41.788Z,97825.72
2022-12-09T20:46:30.693Z,97855.78
2022-12-09T20:49:17.418Z,97763.41
2022-12-09T20:52:03.905Z,97847.94
2022-12-09T20:54:50.437Z,97837.63
2022-12-09T20:57:36.835Z,97842.44
2022-12-09T21:00:23.542Z,97852.91
2022-12-09T21:03:09.970Z,97839.16
2022-12-09T21:05:58.316Z,97862.88
2022-12-09T21:08:45.125Z,97855.19
2022-12-09T21:11:32.419Z,97848.09
2022-12-09T21:14:51.137Z,97871.50
2022-12-09T21:17:37.490Z,97849.06
2022-12-09T21:20:24.066Z,97828.13
2022-12-09T21:23:33.255Z,97864.72
2022-12-09T21:26:19.010Z,97821.66
2022-12-09T21:29:05.264Z,97834.56
2022-12-09T21:31:54.298Z,97861.03
2022-12-09T21:34:40.940Z,97834.53
2022-12-09T21:37:27.194Z,97821.66
2022-12-09T21:40:13.451Z,97873.03
2022-12-09T21:42:59.848Z,97855.00
2022-12-09T21:45:45.888Z,97874.66
2022-12-09T21:48:32.602Z,97873.78
2022-12-09T21:51:19.832Z,97833.59
2022-12-09T21:54:06.502Z,97848.69
2022-12-09T21:56:52.949Z,97883.16
2022-12-09T21:59:39.179Z,97847.25
2022-12-09T22:02:25.416Z,97839.25
2022-12-09T22:05:11.971Z,97893.91
2022-12-09T22:07:58.231Z,97884.06
2022-12-09T22:10:44.664Z,97861.00
2022-12-09T22:13:36.209Z,97866.13
2022-12-09T22:16:30.282Z,97887.69
2022-12-09T22:19:18.978Z,97828.66
2022-12-09T22:22:09.019Z,97867.59
2022-12-09T22:24:55.510Z,97859.72
2022-12-09T22:27:41.794Z,97879.31
2022-12-09T22:30:28.192Z,97875.97
2022-12-09T22:33:14.539Z,97894.84
2022-12-09T22:36:09.660Z,97902.22
2022-12-09T22:38:56.159Z,97905.41
2022-12-09T22:41:43.755Z,97866.59
2022-12-09T22:44:30.061Z,97900.13
2022-12-09T22:47:16.784Z,97855.44
2022-12-09T22:50:03.106Z,97908.78
2022-12-09T22:52:49.464Z,97891.34
2022-12-09T22:55:35.906Z,97899.06
2022-12-09T22:58:22.068Z,97906.88
2022-12-09T23:01:14.209Z,97910.16
2022-12-09T23:04:01.332Z,97911.06
2022-12-09T23:06:48.540Z,97905.00
2022-12-09T23:09:34.951Z,97879.19
2022-12-09T23:12:21.328Z,97897.41
2022-12-09T23:15:07.896Z,97889.66
2022-12-09T23:17:53.972Z,97829.66
2022-12-09T23:20:40.224Z,97881.28
2022-12-09T23:23:26.676Z,97908.59
2022-12-09T23:26:18.993Z,97883.56
2022-12-09T23:29:07.503Z,97908.47
2022-12-09T23:31:53.961Z,97879.31
2022-12-09T23:34:40.540Z,97911.69
2022-12-09T23:37:26.753Z,97910.75
2022-12-09T23:40:13.461Z,97908.31
2022-12-09T23:43:00.026Z,97884.34
2022-12-09T23:45:46.324Z,97900.00
2022-12-09T23:48:32.733Z,97899.00
2022-12-09T23:51:27.876Z,97902.47
2022-12-09T23:54:16.383Z,97887.75
2022-12-09T23:57:02.581Z,97880.63
2022-12-09T23:59:49.815Z,97896.91
